createdAt,value
2022-12-01T00:01:25.469Z,23.50
2022-12-01T00:05:47.663Z,23.17
2022-12-01T00:10:26.982Z,24.02
2022-12-01T00:14:55.013Z,23.70
2022-12-01T00:19:17.924Z,27.80
2022-12-01T00:23:42.632Z,30.38
2022-12-01T00:28:04.696Z,32.97
2022-12-01T00:32:26.722Z,32.88
2022-12-01T00:36:48.677Z,32.55
2022-12-01T00:41:10.644Z,33.08
2022-12-01T00:45:32.724Z,35.33
2022-12-01T00:49:54.662Z,38.40
2022-12-01T00:54:16.648Z,40.20
2022-12-01T00:58:38.583Z,38.08
2022-12-01T01:03:00.573Z,40.40
2022-12-01T01:07:22.485Z,41.92
2022-12-01T01:11:44.392Z,45.08
2022-12-01T01:16:17.954Z,43.22
2022-12-01T01:20:39.683Z,45.90
2022-12-01T01:25:01.666Z,44.75
2022-12-01T01:29:23.327Z,44.13
2022-12-01T01:33:45.651Z,46.92
2022-12-01T01:38:07.210Z,48.40
2022-12-01T01:42:29.126Z,52.00
2022-12-01T01:46:51.341Z,54.78
2022-12-01T01:51:14.539Z,57.70
2022-12-01T01:55:36.870Z,57.15
2022-12-01T02:00:10.757Z,56.42
2022-12-01T02:04:40.512Z,56.28
2022-12-01T02:09:02.309Z,54.88
2022-12-01T02:14:01.874Z,56.53
2022-12-01T02:18:55.475Z,53.25
2022-12-01T02:23:48.482Z,52.42
2022-12-01T02:28:40.595Z,51.40
2022-12-01T02:33:36.976Z,52.67
2022-12-01T02:38:30.314Z,56.20
2022-12-01T02:43:03.343Z,57.30
2022-12-01T02:47:25.516Z,60.30
2022-12-01T02:51:51.050Z,60.28
2022-12-01T02:56:16.216Z,58.78
2022-12-01T03:00:39.040Z,51.53
2022-12-01T03:05:47.117Z,48.78
2022-12-01T03:10:20.857Z,48.97
2022-12-01T03:15:03.342Z,49.47
2022-12-01T03:19:34.245Z,49.50
2022-12-01T03:24:09.368Z,47.13
2022-12-01T03:28:38.282Z,46.95
2022-12-01T03:33:15.173Z,47.75
2022-12-01T03:37:49.692Z,47.38
2022-12-01T03:42:44.927Z,45.58
2022-12-01T03:47:22.145Z,48.20
2022-12-01T03:51:58.815Z,46.67
2022-12-01T03:56:26.253Z,45.60
2022-12-01T04:00:53.434Z,41.60
2022-12-01T04:05:15.585Z,46.15
2022-12-01T04:09:37.181Z,42.05
2022-12-01T04:13:59.372Z,43.55
2022-12-01T04:18:22.075Z,40.42
2022-12-01T04:22:44.402Z,42.47
2022-12-01T04:27:06.167Z,41.63
2022-12-01T04:31:28.804Z,40.30
2022-12-01T04:36:00.618Z,40.65
2022-12-01T04:40:22.191Z,40.47
2022-12-01T04:44:44.085Z,42.33
2022-12-01T04:49:06.287Z,37.75
2022-12-01T04:53:28.071Z,38.20
2022-12-01T04:57:49.667Z,34.15
2022-12-01T05:02:11.644Z,36.05
2022-12-01T05:06:34.212Z,34.20
2022-12-01T05:10:56.894Z,33.50
2022-12-01T05:15:18.979Z,31.33
2022-12-01T05:19:59.566Z,31.67
2022-12-01T05:24:22.560Z,30.90
2022-12-01T05:28:44.505Z,31.30
2022-12-01T05:33:06.944Z,32.97
2022-12-01T05:37:33.336Z,30.80
2022-12-01T05:41:55.424Z,31.13
2022-12-01T05:46:17.367Z,32.17
2022-12-01T05:50:40.191Z,32.10
2022-12-01T05:55:06.218Z,30.63
2022-12-01T05:59:28.481Z,31.05
2022-12-01T06:03:50.445Z,33.17
2022-12-01T06:08:12.560Z,30.73
2022-12-01T06:12:34.483Z,32.40
2022-12-01T06:16:56.398Z,32.50
2022-12-01T06:21:18.538Z,31.60
2022-12-01T06:25:40.414Z,31.15
2022-12-01T06:30:03.245Z,32.63
2022-12-01T06:34:24.808Z,33.40
2022-12-01T06:38:46.904Z,31.30
2022-12-01T06:43:08.767Z,31.77
2022-12-01T06:47:31.018Z,31.48
2022-12-01T06:51:52.959Z,31.00
2022-12-01T06:56:14.814Z,30.63
2022-12-01T07:00:37.235Z,31.05
2022-12-01T07:04:59.662Z,30.17
2022-12-01T07:09:21.430Z,29.65
2022-12-01T07:13:46.976Z,28.65
2022-12-01T07:18:08.825Z,27.88
2022-12-01T07:22:32.784Z,28.55
2022-12-01T07:26:54.820Z,28.83
2022-12-01T07:31:20.429Z,29.52
2022-12-01T07:35:42.411Z,29.65
2022-12-01T07:40:05.388Z,29.92
2022-12-01T07:44:27.383Z,29.77
2022-12-01T07:48:49.493Z,28.77
2022-12-01T07:53:11.330Z,29.77
2022-12-01T07:57:33.339Z,28.17
2022-12-01T08:01:55.155Z,30.30
2022-12-01T08:06:18.514Z,29.83
2022-12-01T08:10:40.473Z,28.05
2022-12-01T08:15:03.036Z,30.95
2022-12-01T08:19:25.939Z,29.38
2022-12-01T08:23:48.037Z,28.75
2022-12-01T08:28:09.713Z,28.30
2022-12-01T08:32:31.688Z,28.77
2022-12-01T08:36:53.775Z,28.52
2022-12-01T08:41:16.731Z,29.00
2022-12-01T08:45:38.360Z,27.10
2022-12-01T08:50:00.502Z,27.55
2022-12-01T08:54:23.094Z,28.48
2022-12-01T08:58:45.094Z,26.70
2022-12-01T09:03:06.944Z,25.17
2022-12-01T09:07:28.996Z,27.73
2022-12-01T09:11:52.520Z,25.73
2022-12-01T09:16:17.472Z,24.13
2022-12-01T09:20:39.410Z,24.52
2022-12-01T09:25:01.359Z,27.13
2022-12-01T09:29:23.501Z,25.75
2022-12-01T09:33:45.598Z,24.60
2022-12-01T09:38:07.680Z,27.70
2022-12-01T09:42:35.243Z,25.65
2022-12-01T09:47:19.534Z,26.30
2022-12-01T09:51:41.566Z,25.27
2022-12-01T09:56:11.560Z,24.20
2022-12-01T10:00:47.164Z,26.33
2022-12-01T10:05:24.645Z,26.05
2022-12-01T10:10:02.018Z,27.42
2022-12-01T10:14:23.786Z,28.52
2022-12-01T10:19:06.067Z,35.17
2022-12-01T10:24:03.023Z,31.30
2022-12-01T10:28:55.171Z,28.48
2022-12-01T10:33:24.319Z,29.27
2022-12-01T10:37:47.493Z,27.98
2022-12-01T10:42:47.026Z,27.45
2022-12-01T10:47:35.883Z,26.75
2022-12-01T10:51:58.741Z,27.02
2022-12-01T10:56:22.111Z,29.17
2022-12-01T11:01:01.983Z,28.70
2022-12-01T11:05:42.988Z,29.45
2022-12-01T11:10:30.998Z,30.95
2022-12-01T11:14:55.769Z,29.33
2022-12-01T11:19:35.827Z,30.27
2022-12-01T11:23:58.147Z,29.17
2022-12-01T11:28:20.811Z,29.20
2022-12-01T11:32:58.661Z,30.83
2022-12-01T11:37:24.616Z,27.77
2022-12-01T11:41:46.570Z,26.75
2022-12-01T11:46:09.981Z,27.42
2022-12-01T11:50:37.513Z,29.58
2022-12-01T11:55:22.994Z,29.35
2022-12-01T11:59:45.412Z,29.48
2022-12-01T12:04:19.132Z,32.28
2022-12-01T12:09:05.214Z,31.15
2022-12-01T12:13:52.114Z,32.13
2022-12-01T12:18:43.347Z,33.78
2022-12-01T12:23:29.654Z,33.42
2022-12-01T12:28:33.255Z,38.58
2022-12-01T12:33:32.539Z,34.90
2022-12-01T12:38:28.086Z,35.83
2022-12-01T12:43:15.393Z,34.95
2022-12-01T12:47:37.092Z,35.38
2022-12-01T12:52:15.420Z,35.92
2022-12-01T12:56:37.823Z,33.45
2022-12-01T13:01:21.375Z,33.67
2022-12-01T13:06:09.187Z,36.92
2022-12-01T13:10:58.220Z,42.22
2022-12-01T13:15:22.064Z,34.78
2022-12-01T13:19:45.930Z,38.00
2022-12-01T13:24:10.752Z,34.38
2022-12-01T13:28:52.825Z,36.00
2022-12-01T13:33:17.157Z,47.08
2022-12-01T13:37:40.432Z,37.55
2022-12-01T13:42:20.795Z,38.65
2022-12-01T13:46:42.683Z,38.75
2022-12-01T13:51:05.420Z,41.20
2022-12-01T13:55:29.700Z,41.05
2022-12-01T14:00:00.973Z,41.25
2022-12-01T14:04:27.210Z,41.38
2022-12-01T14:08:50.514Z,39.42
2022-12-01T14:13:20.211Z,41.63
2022-12-01T14:17:42.375Z,41.90
2022-12-01T14:22:07.251Z,41.53
2022-12-01T14:26:31.140Z,41.85
2022-12-01T14:30:54.470Z,42.80
2022-12-01T14:35:16.992Z,41.92
2022-12-01T14:39:47.714Z,44.80
2022-12-01T14:44:27.387Z,44.28
2022-12-01T14:48:50.597Z,41.17
2022-12-01T14:53:36.538Z,41.80
2022-12-01T14:58:13.958Z,41.20
2022-12-01T15:02:57.979Z,40.42
2022-12-01T15:07:23.457Z,41.00
2022-12-01T15:12:09.722Z,39.88
2022-12-01T15:16:40.073Z,44.80
2022-12-01T15:21:05.529Z,41.67
2022-12-01T15:25:35.622Z,47.45
2022-12-01T15:30:03.544Z,44.00
2022-12-01T15:34:41.149Z,47.40
2022-12-01T15:39:07.065Z,54.03
2022-12-01T15:43:40.155Z,48.92
2022-12-01T15:48:14.319Z,52.47
2022-12-01T15:52:44.199Z,51.78
2022-12-01T15:57:07.139Z,48.92
2022-12-01T16:01:32.673Z,48.15
2022-12-01T16:05:55.884Z,48.63
2022-12-01T16:10:33.995Z,46.95
2022-12-01T16:15:13.131Z,49.38
2022-12-01T16:19:36.063Z,48.80
2022-12-01T16:24:06.330Z,46.42
2022-12-01T16:28:36.100Z,44.35
2022-12-01T16:33:24.100Z,44.63
2022-12-01T16:37:45.945Z,44.67
2022-12-01T16:42:16.153Z,43.42
2022-12-01T16:46:38.088Z,42.33
2022-12-01T16:51:05.576Z,44.63
2022-12-01T16:55:47.213Z,46.13
2022-12-01T17:00:09.962Z,43.13
2022-12-01T17:04:31.984Z,46.08
2022-12-01T17:08:54.077Z,43.42
2022-12-01T17:13:16.434Z,41.22
2022-12-01T17:17:38.492Z,43.20
2022-12-01T17:22:00.329Z,43.45
2022-12-01T17:26:23.219Z,46.47
2022-12-01T17:30:45.087Z,44.30
2022-12-01T17:35:07.815Z,42.15
2022-12-01T17:39:29.428Z,42.50
2022-12-01T17:43:52.023Z,43.25
2022-12-01T17:48:14.039Z,47.97
2022-12-01T17:52:36.222Z,45.53
2022-12-01T17:56:58.763Z,46.08
2022-12-01T18:01:26.770Z,45.10
2022-12-01T18:06:01.049Z,47.03
2022-12-01T18:10:23.199Z,41.47
2022-12-01T18:14:45.431Z,43.08
2022-12-01T18:19:07.554Z,45.20
2022-12-01T18:23:29.448Z,44.28
2022-12-01T18:27:58.202Z,45.38
2022-12-01T18:32:19.854Z,46.60
2022-12-01T18:36:44.386Z,44.95
2022-12-01T18:41:06.854Z,46.53
2022-12-01T18:45:28.884Z,46.58
2022-12-01T18:49:50.964Z,45.13
2022-12-01T18:54:15.865Z,59.05
2022-12-01T18:58:38.654Z,46.08
2022-12-01T19:03:00.533Z,45.67
2022-12-01T19:07:28.187Z,44.53
2022-12-01T19:11:59.832Z,46.38
2022-12-01T19:16:22.096Z,47.92
2022-12-01T19:20:43.978Z,46.95
2022-12-01T19:25:06.751Z,43.10
2022-12-01T19:29:29.377Z,46.10
2022-12-01T19:33:53.359Z,46.35
2022-12-01T19:38:15.725Z,43.13
2022-12-01T19:42:37.463Z,43.53
2022-12-01T19:46:59.725Z,44.42
2022-12-01T19:51:28.916Z,44.97
2022-12-01T19:55:50.912Z,44.28
2022-12-01T20:00:13.597Z,40.60
2022-12-01T20:04:38.946Z,43.53
2022-12-01T20:09:03.295Z,45.10
2022-12-01T20:13:24.984Z,43.28
2022-12-01T20:17:46.919Z,42.50
2022-12-01T20:22:11.683Z,40.70
2022-12-01T20:26:38.197Z,44.45
2022-12-01T20:31:00.680Z,40.70
2022-12-01T20:35:22.817Z,42.25
2022-12-01T20:39:45.179Z,43.75
2022-12-01T20:44:08.072Z,44.70
2022-12-01T20:48:30.615Z,43.33
2022-12-01T20:52:52.433Z,40.47
2022-12-01T20:57:14.531Z,43.03
2022-12-01T21:01:37.006Z,41.75
2022-12-01T21:05:59.798Z,44.53
2022-12-01T21:10:22.059Z,42.22
2022-12-01T21:15:29.652Z,42.22
2022-12-01T21:20:18.017Z,40.53
2022-12-01T21:24:43.761Z,41.50
2022-12-01T21:29:20.561Z,44.03
2022-12-01T21:33:42.947Z,43.00
2022-12-01T21:38:12.142Z,40.15
2022-12-01T21:42:36.422Z,41.78
2022-12-01T21:47:01.621Z,41.95
2022-12-01T21:51:25.176Z,37.78
2022-12-01T21:55:48.035Z,41.75
2022-12-01T22:00:25.655Z,39.00
2022-12-01T22:04:47.561Z,40.17
2022-12-01T22:09:29.320Z,40.38
2022-12-01T22:14:00.280Z,39.95
2022-12-01T22:18:35.528Z,39.97
2022-12-01T22:22:58.087Z,41.05
2022-12-01T22:27:35.215Z,41.88
2022-12-01T22:32:12.285Z,44.22
2022-12-01T22:36:35.145Z,43.58
2022-12-01T22:41:16.337Z,45.15
2022-12-01T22:45:39.208Z,48.08
2022-12-01T22:50:01.180Z,44.83
2022-12-01T22:54:26.938Z,45.33
2022-12-01T22:58:48.676Z,46.17
2022-12-01T23:03:12.216Z,44.22
2022-12-01T23:07:41.585Z,42.35
2022-12-01T23:12:26.001Z,46.15
2022-12-01T23:17:26.062Z,44.13
2022-12-01T23:21:52.036Z,45.03
2022-12-01T23:26:14.055Z,45.42
2022-12-01T23:30:39.540Z,45.47
2022-12-01T23:35:01.457Z,43.65
2022-12-01T23:39:34.946Z,45.70
2022-12-01T23:44:03.732Z,46.97
2022-12-01T23:48:37.359Z,47.60
2022-12-01T23:52:59.294Z,47.30
2022-12-01T23:57:25.172Z,47.08
